sensor_id;sensor_type;location;lat;lon;timestamp;temperature;humidity
25871;DHT22;13689;48.590;7.752;2023-05-07T00:00:16;18.90;58.30
25871;DHT22;13689;48.590;7.752;2023-05-07T00:02:44;18.90;58.40
25871;DHT22;13689;48.590;7.752;2023-05-07T00:05:09;18.90;58.40
25871;DHT22;13689;48.590;7.752;2023-05-07T00:07:35;18.80;58.40
25871;DHT22;13689;48.590;7.752;2023-05-07T00:10:01;18.80;58.40
25871;DHT22;13689;48.590;7.752;2023-05-07T00:12:26;18.80;58.40
25871;DHT22;13689;48.590;7.752;2023-05-07T00:14:52;18.80;58.40
25871;DHT22;13689;48.590;7.752;2023-05-07T00:17:17;18.80;58.40
25871;DHT22;13689;48.590;7.752;2023-05-07T00:19:43;18.70;58.40
25871;DHT22;13689;48.590;7.752;2023-05-07T00:22:08;18.70;58.50
25871;DHT22;13689;48.590;7.752;2023-05-07T00:24:34;18.70;58.50
25871;DHT22;13689;48.590;7.752;2023-05-07T00:26:59;18.60;58.50
25871;DHT22;13689;48.590;7.752;2023-05-07T00:29:25;18.60;58.50
25871;DHT22;13689;48.590;7.752;2023-05-07T00:31:51;18.60;58.60
25871;DHT22;13689;48.590;7.752;2023-05-07T00:34:16;18.60;58.70
25871;DHT22;13689;48.590;7.752;2023-05-07T00:36:42;18.60;58.80
25871;DHT22;13689;48.590;7.752;2023-05-07T00:39:07;18.50;58.80
25871;DHT22;13689;48.590;7.752;2023-05-07T00:41:33;18.50;58.80
25871;DHT22;13689;48.590;7.752;2023-05-07T00:43:58;18.50;58.80
25871;DHT22;13689;48.590;7.752;2023-05-07T00:46:24;18.50;58.90
25871;DHT22;13689;48.590;7.752;2023-05-07T00:48:50;18.40;59.00
25871;DHT22;13689;48.590;7.752;2023-05-07T00:51:16;18.40;59.00
25871;DHT22;13689;48.590;7.752;2023-05-07T00:53:42;18.40;59.10
25871;DHT22;13689;48.590;7.752;2023-05-07T00:56:07;18.40;59.20
25871;DHT22;13689;48.590;7.752;2023-05-07T00:58:33;18.30;59.20
25871;DHT22;13689;48.590;7.752;2023-05-07T01:00:59;18.30;59.20
25871;DHT22;13689;48.590;7.752;2023-05-07T01:03:24;18.30;59.20
25871;DHT22;13689;48.590;7.752;2023-05-07T01:05:51;18.30;59.30
25871;DHT22;13689;48.590;7.752;2023-05-07T01:08:17;18.30;59.40
25871;DHT22;13689;48.590;7.752;2023-05-07T01:10:43;18.20;59.40
25871;DHT22;13689;48.590;7.752;2023-05-07T01:13:09;18.20;59.40
25871;DHT22;13689;48.590;7.752;2023-05-07T01:15:35;18.20;59.40
25871;DHT22;13689;48.590;7.752;2023-05-07T01:18:01;18.20;59.40
25871;DHT22;13689;48.590;7.752;2023-05-07T01:20:27;18.20;59.40
25871;DHT22;13689;48.590;7.752;2023-05-07T01:22:53;18.20;59.30
25871;DHT22;13689;48.590;7.752;2023-05-07T01:25:18;18.20;59.40
25871;DHT22;13689;48.590;7.752;2023-05-07T01:27:44;18.10;59.40
25871;DHT22;13689;48.590;7.752;2023-05-07T01:30:10;18.10;59.50
25871;DHT22;13689;48.590;7.752;2023-05-07T01:32:37;18.00;59.60
25871;DHT22;13689;48.590;7.752;2023-05-07T01:35:05;18.00;59.80
25871;DHT22;13689;48.590;7.752;2023-05-07T01:37:32;18.00;59.90
25871;DHT22;13689;48.590;7.752;2023-05-07T01:39:58;18.00;60.00
25871;DHT22;13689;48.590;7.752;2023-05-07T01:42:23;18.00;60.10
25871;DHT22;13689;48.590;7.752;2023-05-07T01:44:49;17.90;60.10
25871;DHT22;13689;48.590;7.752;2023-05-07T01:47:15;17.90;60.10
25871;DHT22;13689;48.590;7.752;2023-05-07T01:49:41;17.90;60.10
25871;DHT22;13689;48.590;7.752;2023-05-07T01:52:07;17.90;60.20
25871;DHT22;13689;48.590;7.752;2023-05-07T01:54:32;17.80;60.30
25871;DHT22;13689;48.590;7.752;2023-05-07T01:56:58;17.80;60.30
25871;DHT22;13689;48.590;7.752;2023-05-07T01:59:23;17.80;60.30
25871;DHT22;13689;48.590;7.752;2023-05-07T02:01:49;17.80;60.40
25871;DHT22;13689;48.590;7.752;2023-05-07T02:04:14;17.80;60.60
25871;DHT22;13689;48.590;7.752;2023-05-07T02:06:40;17.80;60.60
25871;DHT22;13689;48.590;7.752;2023-05-07T02:09:05;17.70;60.50
25871;DHT22;13689;48.590;7.752;2023-05-07T02:11:31;17.70;60.60
25871;DHT22;13689;48.590;7.752;2023-05-07T02:13:56;17.70;60.70
25871;DHT22;13689;48.590;7.752;2023-05-07T02:16:22;17.70;60.70
25871;DHT22;13689;48.590;7.752;2023-05-07T02:18:48;17.60;60.80
25871;DHT22;13689;48.590;7.752;2023-05-07T02:21:14;17.50;61.00
25871;DHT22;13689;48.590;7.752;2023-05-07T02:23:39;17.50;61.10
25871;DHT22;13689;48.590;7.752;2023-05-07T02:26:05;17.50;61.40
25871;DHT22;13689;48.590;7.752;2023-05-07T02:28:30;17.50;61.60
25871;DHT22;13689;48.590;7.752;2023-05-07T02:30:56;17.40;61.70
25871;DHT22;13689;48.590;7.752;2023-05-07T02:33:23;17.30;62.20
25871;DHT22;13689;48.590;7.752;2023-05-07T02:35:49;17.30;62.60
25871;DHT22;13689;48.590;7.752;2023-05-07T02:38:14;17.30;62.80
25871;DHT22;13689;48.590;7.752;2023-05-07T02:40:40;17.30;62.90
25871;DHT22;13689;48.590;7.752;2023-05-07T02:43:05;17.30;62.80
25871;DHT22;13689;48.590;7.752;2023-05-07T02:45:32;17.30;62.80
25871;DHT22;13689;48.590;7.752;2023-05-07T02:47:57;17.20;63.10
25871;DHT22;13689;48.590;7.752;2023-05-07T02:50:23;17.20;63.40
25871;DHT22;13689;48.590;7.752;2023-05-07T02:52:49;17.20;63.60
25871;DHT22;13689;48.590;7.752;2023-05-07T02:55:14;17.10;63.80
25871;DHT22;13689;48.590;7.752;2023-05-07T02:57:41;17.10;64.00
25871;DHT22;13689;48.590;7.752;2023-05-07T03:00:13;17.10;63.90
25871;DHT22;13689;48.590;7.752;2023-05-07T03:02:39;17.00;64.60
25871;DHT22;13689;48.590;7.752;2023-05-07T03:05:05;17.00;65.20
25871;DHT22;13689;48.590;7.752;2023-05-07T03:07:31;16.90;65.70
25871;DHT22;13689;48.590;7.752;2023-05-07T03:09:56;16.90;65.80
25871;DHT22;13689;48.590;7.752;2023-05-07T03:12:22;16.90;65.80
25871;DHT22;13689;48.590;7.752;2023-05-07T03:14:47;16.90;65.80
25871;DHT22;13689;48.590;7.752;2023-05-07T03:17:13;16.90;66.00
25871;DHT22;13689;48.590;7.752;2023-05-07T03:19:38;16.90;65.80
25871;DHT22;13689;48.590;7.752;2023-05-07T03:22:04;16.90;65.80
25871;DHT22;13689;48.590;7.752;2023-05-07T03:24:29;16.90;65.80
25871;DHT22;13689;48.590;7.752;2023-05-07T03:26:55;16.90;66.00
25871;DHT22;13689;48.590;7.752;2023-05-07T03:29:20;16.80;66.30
25871;DHT22;13689;48.590;7.752;2023-05-07T03:31:46;16.70;66.50
25871;DHT22;13689;48.590;7.752;2023-05-07T03:34:11;16.70;66.80
25871;DHT22;13689;48.590;7.752;2023-05-07T03:36:37;16.70;66.70
25871;DHT22;13689;48.590;7.752;2023-05-07T03:39:02;16.70;66.90
25871;DHT22;13689;48.590;7.752;2023-05-07T03:41:28;16.70;66.90
25871;DHT22;13689;48.590;7.752;2023-05-07T03:43:54;16.70;66.90
25871;DHT22;13689;48.590;7.752;2023-05-07T03:46:20;16.70;66.80
25871;DHT22;13689;48.590;7.752;2023-05-07T03:48:46;16.80;66.80
25871;DHT22;13689;48.590;7.752;2023-05-07T03:51:11;16.70;66.80
25871;DHT22;13689;48.590;7.752;2023-05-07T03:53:37;16.70;66.90
25871;DHT22;13689;48.590;7.752;2023-05-07T03:56:02;16.70;66.90
25871;DHT22;13689;48.590;7.752;2023-05-07T03:58:28;16.80;66.80
25871;DHT22;13689;48.590;7.752;2023-05-07T04:00:53;16.80;66.60
25871;DHT22;13689;48.590;7.752;2023-05-07T04:03:19;16.80;66.60
25871;DHT22;13689;48.590;7.752;2023-05-07T04:05:44;16.80;66.50
25871;DHT22;13689;48.590;7.752;2023-05-07T04:08:10;16.80;66.40
25871;DHT22;13689;48.590;7.752;2023-05-07T04:10:35;16.80;66.40
25871;DHT22;13689;48.590;7.752;2023-05-07T04:13:01;16.80;66.40
25871;DHT22;13689;48.590;7.752;2023-05-07T04:15:26;16.80;66.30
25871;DHT22;13689;48.590;7.752;2023-05-07T04:17:52;16.80;66.50
25871;DHT22;13689;48.590;7.752;2023-05-07T04:20:17;16.70;67.00
25871;DHT22;13689;48.590;7.752;2023-05-07T04:22:43;16.70;67.10
25871;DHT22;13689;48.590;7.752;2023-05-07T04:25:09;16.70;66.90
25871;DHT22;13689;48.590;7.752;2023-05-07T04:27:35;16.70;66.80
25871;DHT22;13689;48.590;7.752;2023-05-07T04:30:01;16.80;66.80
25871;DHT22;13689;48.590;7.752;2023-05-07T04:32:28;16.80;66.60
25871;DHT22;13689;48.590;7.752;2023-05-07T04:34:54;16.70;66.70
25871;DHT22;13689;48.590;7.752;2023-05-07T04:37:20;16.80;66.80
25871;DHT22;13689;48.590;7.752;2023-05-07T04:39:46;16.80;66.70
25871;DHT22;13689;48.590;7.752;2023-05-07T04:42:15;16.90;66.60
25871;DHT22;13689;48.590;7.752;2023-05-07T04:44:40;16.90;66.50
25871;DHT22;13689;48.590;7.752;2023-05-07T04:47:06;16.90;66.50
25871;DHT22;13689;48.590;7.752;2023-05-07T04:49:31;16.90;66.50
25871;DHT22;13689;48.590;7.752;2023-05-07T04:51:57;16.90;66.50
25871;DHT22;13689;48.590;7.752;2023-05-07T04:54:22;17.00;66.50
25871;DHT22;13689;48.590;7.752;2023-05-07T04:56:48;17.00;66.40
25871;DHT22;13689;48.590;7.752;2023-05-07T04:59:14;17.00;66.40
25871;DHT22;13689;48.590;7.752;2023-05-07T05:01:40;17.00;66.40
25871;DHT22;13689;48.590;7.752;2023-05-07T05:04:05;17.00;66.50
25871;DHT22;13689;48.590;7.752;2023-05-07T05:06:31;17.10;66.50
25871;DHT22;13689;48.590;7.752;2023-05-07T05:08:57;17.10;66.50
25871;DHT22;13689;48.590;7.752;2023-05-07T05:11:22;17.10;66.40
25871;DHT22;13689;48.590;7.752;2023-05-07T05:13:48;17.10;66.40
25871;DHT22;13689;48.590;7.752;2023-05-07T05:16:14;17.20;66.20
25871;DHT22;13689;48.590;7.752;2023-05-07T05:18:41;17.20;66.00
25871;DHT22;13689;48.590;7.752;2023-05-07T05:21:07;17.20;66.50
25871;DHT22;13689;48.590;7.752;2023-05-07T05:23:32;17.20;66.40
25871;DHT22;13689;48.590;7.752;2023-05-07T05:25:58;17.40;66.40
25871;DHT22;13689;48.590;7.752;2023-05-07T05:28:23;17.50;66.30
25871;DHT22;13689;48.590;7.752;2023-05-07T05:30:49;17.50;66.10
25871;DHT22;13689;48.590;7.752;2023-05-07T05:33:15;17.70;65.90
25871;DHT22;13689;48.590;7.752;2023-05-07T05:35:41;17.80;66.00
25871;DHT22;13689;48.590;7.752;2023-05-07T05:38:06;17.90;65.50
25871;DHT22;13689;48.590;7.752;2023-05-07T05:40:32;18.00;65.50
25871;DHT22;13689;48.590;7.752;2023-05-07T05:42:58;18.10;66.20
25871;DHT22;13689;48.590;7.752;2023-05-07T05:45:24;18.20;65.20
25871;DHT22;13689;48.590;7.752;2023-05-07T05:47:50;18.40;65.10
25871;DHT22;13689;48.590;7.752;2023-05-07T05:50:15;18.50;64.80
25871;DHT22;13689;48.590;7.752;2023-05-07T05:52:41;18.70;64.50
25871;DHT22;13689;48.590;7.752;2023-05-07T05:55:07;18.80;64.20
25871;DHT22;13689;48.590;7.752;2023-05-07T05:57:33;18.90;64.20
25871;DHT22;13689;48.590;7.752;2023-05-07T05:59:59;18.90;64.10
25871;DHT22;13689;48.590;7.752;2023-05-07T06:02:25;18.90;64.10
25871;DHT22;13689;48.590;7.752;2023-05-07T06:04:50;19.00;64.00
25871;DHT22;13689;48.590;7.752;2023-05-07T06:07:16;19.10;63.70
25871;DHT22;13689;48.590;7.752;2023-05-07T06:09:41;19.10;63.40
25871;DHT22;13689;48.590;7.752;2023-05-07T06:12:07;19.20;63.60
25871;DHT22;13689;48.590;7.752;2023-05-07T06:14:32;19.40;63.40
25871;DHT22;13689;48.590;7.752;2023-05-07T06:16:57;19.50;62.90
25871;DHT22;13689;48.590;7.752;2023-05-07T06:19:23;19.40;62.80
25871;DHT22;13689;48.590;7.752;2023-05-07T06:21:49;19.30;63.10
25871;DHT22;13689;48.590;7.752;2023-05-07T06:24:15;19.20;63.30
25871;DHT22;13689;48.590;7.752;2023-05-07T06:26:40;19.10;63.50
25871;DHT22;13689;48.590;7.752;2023-05-07T06:29:06;19.10;63.60
25871;DHT22;13689;48.590;7.752;2023-05-07T06:31:31;19.20;63.50
25871;DHT22;13689;48.590;7.752;2023-05-07T06:33:57;19.30;63.40
25871;DHT22;13689;48.590;7.752;2023-05-07T06:36:24;19.30;63.20
25871;DHT22;13689;48.590;7.752;2023-05-07T06:38:50;19.20;63.00
25871;DHT22;13689;48.590;7.752;2023-05-07T06:41:16;19.20;63.20
25871;DHT22;13689;48.590;7.752;2023-05-07T06:43:41;19.10;63.30
25871;DHT22;13689;48.590;7.752;2023-05-07T06:46:07;19.10;63.50
25871;DHT22;13689;48.590;7.752;2023-05-07T06:48:32;19.00;63.50
25871;DHT22;13689;48.590;7.752;2023-05-07T06:50:58;19.00;63.50
25871;DHT22;13689;48.590;7.752;2023-05-07T06:53:23;19.20;63.50
25871;DHT22;13689;48.590;7.752;2023-05-07T06:55:49;19.60;63.00
25871;DHT22;13689;48.590;7.752;2023-05-07T06:58:14;20.10;62.20
25871;DHT22;13689;48.590;7.752;2023-05-07T07:00:40;20.60;61.40
25871;DHT22;13689;48.590;7.752;2023-05-07T07:03:06;20.90;60.60
25871;DHT22;13689;48.590;7.752;2023-05-07T07:05:31;21.00;60.30
25871;DHT22;13689;48.590;7.752;2023-05-07T07:07:57;21.00;60.30
25871;DHT22;13689;48.590;7.752;2023-05-07T07:10:22;21.10;60.30
25871;DHT22;13689;48.590;7.752;2023-05-07T07:12:48;21.10;60.00
25871;DHT22;13689;48.590;7.752;2023-05-07T07:15:14;21.20;59.80
25871;DHT22;13689;48.590;7.752;2023-05-07T07:17:40;21.30;59.60
25871;DHT22;13689;48.590;7.752;2023-05-07T07:20:05;21.30;59.60
25871;DHT22;13689;48.590;7.752;2023-05-07T07:22:31;21.30;59.60
25871;DHT22;13689;48.590;7.752;2023-05-07T07:24:57;21.20;59.70
25871;DHT22;13689;48.590;7.752;2023-05-07T07:27:22;21.20;59.70
25871;DHT22;13689;48.590;7.752;2023-05-07T07:29:48;21.40;59.50
25871;DHT22;13689;48.590;7.752;2023-05-07T07:32:13;21.60;59.30
25871;DHT22;13689;48.590;7.752;2023-05-07T07:34:39;21.70;59.00
25871;DHT22;13689;48.590;7.752;2023-05-07T07:37:04;22.00;58.60
25871;DHT22;13689;48.590;7.752;2023-05-07T07:39:31;22.20;58.40
25871;DHT22;13689;48.590;7.752;2023-05-07T07:41:57;22.60;58.10
25871;DHT22;13689;48.590;7.752;2023-05-07T07:44:23;23.00;57.60
25871;DHT22;13689;48.590;7.752;2023-05-07T07:46:48;23.30;57.00
25871;DHT22;13689;48.590;7.752;2023-05-07T07:49:14;23.40;56.70
25871;DHT22;13689;48.590;7.752;2023-05-07T07:51:39;23.50;56.50
25871;DHT22;13689;48.590;7.752;2023-05-07T07:54:05;23.60;56.40
25871;DHT22;13689;48.590;7.752;2023-05-07T07:56:31;23.80;56.20
25871;DHT22;13689;48.590;7.752;2023-05-07T07:58:57;24.00;55.90
25871;DHT22;13689;48.590;7.752;2023-05-07T08:01:22;24.00;55.80
25871;DHT22;13689;48.590;7.752;2023-05-07T08:03:48;24.00;55.70
25871;DHT22;13689;48.590;7.752;2023-05-07T08:06:13;24.10;55.50
25871;DHT22;13689;48.590;7.752;2023-05-07T08:08:39;24.30;55.40
25871;DHT22;13689;48.590;7.752;2023-05-07T08:11:04;24.20;55.20
25871;DHT22;13689;48.590;7.752;2023-05-07T08:13:30;24.30;55.40
25871;DHT22;13689;48.590;7.752;2023-05-07T08:15:55;24.30;55.30
25871;DHT22;13689;48.590;7.752;2023-05-07T08:18:21;24.00;55.20
25871;DHT22;13689;48.590;7.752;2023-05-07T08:20:48;23.60;55.80
25871;DHT22;13689;48.590;7.752;2023-05-07T08:23:13;23.40;56.10
25871;DHT22;13689;48.590;7.752;2023-05-07T08:25:39;23.20;56.20
25871;DHT22;13689;48.590;7.752;2023-05-07T08:28:05;23.10;56.40
25871;DHT22;13689;48.590;7.752;2023-05-07T08:30:30;23.20;56.20
25871;DHT22;13689;48.590;7.752;2023-05-07T08:32:56;23.50;56.00
25871;DHT22;13689;48.590;7.752;2023-05-07T08:35:21;24.00;55.60
25871;DHT22;13689;48.590;7.752;2023-05-07T08:37:47;24.10;55.20
25871;DHT22;13689;48.590;7.752;2023-05-07T08:40:12;24.20;55.00
25871;DHT22;13689;48.590;7.752;2023-05-07T08:42:38;24.40;54.60
25871;DHT22;13689;48.590;7.752;2023-05-07T08:45:07;24.60;54.20
25871;DHT22;13689;48.590;7.752;2023-05-07T08:47:37;24.80;54.00
25871;DHT22;13689;48.590;7.752;2023-05-07T08:50:04;25.00;53.90
25871;DHT22;13689;48.590;7.752;2023-05-07T08:52:30;25.30;53.40
25871;DHT22;13689;48.590;7.752;2023-05-07T08:54:56;25.50;53.20
25871;DHT22;13689;48.590;7.752;2023-05-07T08:57:21;25.60;53.00
25871;DHT22;13689;48.590;7.752;2023-05-07T08:59:48;25.50;52.90
25871;DHT22;13689;48.590;7.752;2023-05-07T09:02:14;25.70;53.00
25871;DHT22;13689;48.590;7.752;2023-05-07T09:04:40;26.20;52.30
25871;DHT22;13689;48.590;7.752;2023-05-07T09:07:05;26.30;52.00
25871;DHT22;13689;48.590;7.752;2023-05-07T09:09:32;27.00;51.30
25871;DHT22;13689;48.590;7.752;2023-05-07T09:12:05;27.50;50.40
25871;DHT22;13689;48.590;7.752;2023-05-07T09:14:30;27.60;50.20
25871;DHT22;13689;48.590;7.752;2023-05-07T09:16:56;27.60;49.90
25871;DHT22;13689;48.590;7.752;2023-05-07T09:19:25;27.40;50.20
25871;DHT22;13689;48.590;7.752;2023-05-07T09:21:57;27.00;50.50
25871;DHT22;13689;48.590;7.752;2023-05-07T09:24:23;26.60;50.90
25871;DHT22;13689;48.590;7.752;2023-05-07T09:26:48;26.40;51.10
25871;DHT22;13689;48.590;7.752;2023-05-07T09:29:15;26.10;51.10
25871;DHT22;13689;48.590;7.752;2023-05-07T09:31:40;25.70;51.10
25871;DHT22;13689;48.590;7.752;2023-05-07T09:34:06;25.50;51.50
25871;DHT22;13689;48.590;7.752;2023-05-07T09:36:32;25.40;51.70
25871;DHT22;13689;48.590;7.752;2023-05-07T09:39:00;25.40;51.50
25871;DHT22;13689;48.590;7.752;2023-05-07T09:41:26;25.60;51.30
25871;DHT22;13689;48.590;7.752;2023-05-07T09:43:55;25.80;51.10
25871;DHT22;13689;48.590;7.752;2023-05-07T09:46:21;25.90;50.60
25871;DHT22;13689;48.590;7.752;2023-05-07T09:48:50;25.90;50.50
25871;DHT22;13689;48.590;7.752;2023-05-07T09:51:34;25.90;50.30
25871;DHT22;13689;48.590;7.752;2023-05-07T09:54:02;25.90;50.30
25871;DHT22;13689;48.590;7.752;2023-05-07T09:56:29;26.00;50.20
25871;DHT22;13689;48.590;7.752;2023-05-07T09:58:54;26.20;50.20
25871;DHT22;13689;48.590;7.752;2023-05-07T10:01:21;26.20;50.00
25871;DHT22;13689;48.590;7.752;2023-05-07T10:03:47;26.10;50.00
25871;DHT22;13689;48.590;7.752;2023-05-07T10:06:13;26.00;50.10
25871;DHT22;13689;48.590;7.752;2023-05-07T10:08:39;25.80;50.20
25871;DHT22;13689;48.590;7.752;2023-05-07T10:11:05;25.60;50.30
25871;DHT22;13689;48.590;7.752;2023-05-07T10:13:33;25.40;50.50
25871;DHT22;13689;48.590;7.752;2023-05-07T10:16:06;25.30;50.60
25871;DHT22;13689;48.590;7.752;2023-05-07T10:18:32;25.10;50.60
25871;DHT22;13689;48.590;7.752;2023-05-07T10:21:02;24.90;50.70
25871;DHT22;13689;48.590;7.752;2023-05-07T10:23:28;24.90;50.80
25871;DHT22;13689;48.590;7.752;2023-05-07T10:25:54;24.90;50.70
25871;DHT22;13689;48.590;7.752;2023-05-07T10:28:21;25.00;50.60
25871;DHT22;13689;48.590;7.752;2023-05-07T10:33:32;25.20;50.20
25871;DHT22;13689;48.590;7.752;2023-05-07T10:35:59;25.30;50.00
25871;DHT22;13689;48.590;7.752;2023-05-07T10:38:26;25.30;49.70
25871;DHT22;13689;48.590;7.752;2023-05-07T10:40:52;25.40;49.50
25871;DHT22;13689;48.590;7.752;2023-05-07T10:43:17;25.50;49.40
25871;DHT22;13689;48.590;7.752;2023-05-07T10:45:43;25.60;49.40
25871;DHT22;13689;48.590;7.752;2023-05-07T10:48:12;25.60;49.30
25871;DHT22;13689;48.590;7.752;2023-05-07T10:50:41;25.60;49.10
25871;DHT22;13689;48.590;7.752;2023-05-07T10:55:42;25.80;48.90
25871;DHT22;13689;48.590;7.752;2023-05-07T10:58:24;26.00;48.80
25871;DHT22;13689;48.590;7.752;2023-05-07T11:00:59;26.20;48.60
25871;DHT22;13689;48.590;7.752;2023-05-07T11:03:25;26.40;48.40
25871;DHT22;13689;48.590;7.752;2023-05-07T11:06:10;26.40;48.30
25871;DHT22;13689;48.590;7.752;2023-05-07T11:08:57;26.40;48.20
25871;DHT22;13689;48.590;7.752;2023-05-07T11:14:07;26.20;48.30
25871;DHT22;13689;48.590;7.752;2023-05-07T11:16:33;25.90;48.30
25871;DHT22;13689;48.590;7.752;2023-05-07T11:19:01;25.70;48.50
25871;DHT22;13689;48.590;7.752;2023-05-07T11:21:36;25.60;48.60
25871;DHT22;13689;48.590;7.752;2023-05-07T11:24:02;25.60;48.60
25871;DHT22;13689;48.590;7.752;2023-05-07T11:26:29;25.60;48.70
25871;DHT22;13689;48.590;7.752;2023-05-07T11:28:55;25.50;49.30
25871;DHT22;13689;48.590;7.752;2023-05-07T11:31:23;25.60;48.60
25871;DHT22;13689;48.590;7.752;2023-05-07T11:33:48;25.70;48.50
25871;DHT22;13689;48.590;7.752;2023-05-07T11:36:14;25.70;48.30
25871;DHT22;13689;48.590;7.752;2023-05-07T11:38:40;25.80;48.20
25871;DHT22;13689;48.590;7.752;2023-05-07T11:41:06;25.90;48.20
25871;DHT22;13689;48.590;7.752;2023-05-07T11:43:32;25.90;48.10
25871;DHT22;13689;48.590;7.752;2023-05-07T11:46:11;25.90;48.00
25871;DHT22;13689;48.590;7.752;2023-05-07T11:48:37;25.90;48.10
25871;DHT22;13689;48.590;7.752;2023-05-07T11:51:06;25.90;48.10
25871;DHT22;13689;48.590;7.752;2023-05-07T11:53:38;25.90;48.00
25871;DHT22;13689;48.590;7.752;2023-05-07T11:56:10;25.80;48.20
25871;DHT22;13689;48.590;7.752;2023-05-07T11:58:36;25.60;48.40
25871;DHT22;13689;48.590;7.752;2023-05-07T12:01:02;25.60;48.30
25871;DHT22;13689;48.590;7.752;2023-05-07T12:03:28;25.50;48.30
25871;DHT22;13689;48.590;7.752;2023-05-07T12:05:53;25.50;48.50
25871;DHT22;13689;48.590;7.752;2023-05-07T12:08:19;25.40;48.40
25871;DHT22;13689;48.590;7.752;2023-05-07T12:10:46;25.40;48.50
25871;DHT22;13689;48.590;7.752;2023-05-07T12:13:15;25.30;48.60
25871;DHT22;13689;48.590;7.752;2023-05-07T12:15:41;25.30;48.70
25871;DHT22;13689;48.590;7.752;2023-05-07T12:18:07;25.40;48.80
25871;DHT22;13689;48.590;7.752;2023-05-07T12:20:33;25.30;48.70
25871;DHT22;13689;48.590;7.752;2023-05-07T12:22:59;25.20;48.80
25871;DHT22;13689;48.590;7.752;2023-05-07T12:25:24;25.10;49.00
25871;DHT22;13689;48.590;7.752;2023-05-07T12:27:53;25.20;49.10
25871;DHT22;13689;48.590;7.752;2023-05-07T12:30:19;25.10;49.10
25871;DHT22;13689;48.590;7.752;2023-05-07T12:32:44;25.10;49.20
25871;DHT22;13689;48.590;7.752;2023-05-07T12:35:10;25.10;49.30
25871;DHT22;13689;48.590;7.752;2023-05-07T12:37:36;25.00;49.40
25871;DHT22;13689;48.590;7.752;2023-05-07T12:40:05;25.00;49.60
25871;DHT22;13689;48.590;7.752;2023-05-07T12:42:37;25.00;49.70
25871;DHT22;13689;48.590;7.752;2023-05-07T12:45:09;25.00;50.00
25871;DHT22;13689;48.590;7.752;2023-05-07T12:47:35;24.90;50.10
25871;DHT22;13689;48.590;7.752;2023-05-07T12:50:02;24.80;50.20
25871;DHT22;13689;48.590;7.752;2023-05-07T12:52:27;24.80;50.40
25871;DHT22;13689;48.590;7.752;2023-05-07T12:54:53;24.80;50.40
25871;DHT22;13689;48.590;7.752;2023-05-07T12:57:19;24.70;50.40
25871;DHT22;13689;48.590;7.752;2023-05-07T12:59:45;24.70;50.50
25871;DHT22;13689;48.590;7.752;2023-05-07T13:02:10;24.70;50.50
25871;DHT22;13689;48.590;7.752;2023-05-07T13:04:36;24.70;50.60
25871;DHT22;13689;48.590;7.752;2023-05-07T13:07:02;24.60;50.70
25871;DHT22;13689;48.590;7.752;2023-05-07T13:09:27;24.60;50.80
25871;DHT22;13689;48.590;7.752;2023-05-07T13:11:54;24.50;51.00
25871;DHT22;13689;48.590;7.752;2023-05-07T13:14:20;24.50;51.20
25871;DHT22;13689;48.590;7.752;2023-05-07T13:16:46;24.40;51.40
25871;DHT22;13689;48.590;7.752;2023-05-07T13:19:12;24.20;51.90
25871;DHT22;13689;48.590;7.752;2023-05-07T13:21:37;24.20;52.10
25871;DHT22;13689;48.590;7.752;2023-05-07T13:24:03;24.30;52.20
25871;DHT22;13689;48.590;7.752;2023-05-07T13:26:29;24.30;52.20
25871;DHT22;13689;48.590;7.752;2023-05-07T13:28:55;24.40;52.30
25871;DHT22;13689;48.590;7.752;2023-05-07T13:31:21;24.50;52.20
25871;DHT22;13689;48.590;7.752;2023-05-07T13:33:46;24.60;52.20
25871;DHT22;13689;48.590;7.752;2023-05-07T13:36:12;24.60;52.20
25871;DHT22;13689;48.590;7.752;2023-05-07T13:38:38;24.60;52.30
25871;DHT22;13689;48.590;7.752;2023-05-07T13:41:04;24.60;52.60
25871;DHT22;13689;48.590;7.752;2023-05-07T13:43:30;24.60;52.80
25871;DHT22;13689;48.590;7.752;2023-05-07T13:45:55;24.50;53.00
25871;DHT22;13689;48.590;7.752;2023-05-07T13:48:21;24.40;53.40
25871;DHT22;13689;48.590;7.752;2023-05-07T13:50:46;24.30;53.60
25871;DHT22;13689;48.590;7.752;2023-05-07T13:53:12;24.30;53.80
25871;DHT22;13689;48.590;7.752;2023-05-07T13:55:37;24.40;53.80
25871;DHT22;13689;48.590;7.752;2023-05-07T13:58:04;24.40;53.80
25871;DHT22;13689;48.590;7.752;2023-05-07T14:00:30;24.40;53.90
25871;DHT22;13689;48.590;7.752;2023-05-07T14:02:56;24.40;53.90
25871;DHT22;13689;48.590;7.752;2023-05-07T14:05:21;24.40;53.90
25871;DHT22;13689;48.590;7.752;2023-05-07T14:07:51;24.40;54.00
25871;DHT22;13689;48.590;7.752;2023-05-07T14:10:26;24.40;54.10
25871;DHT22;13689;48.590;7.752;2023-05-07T14:13:03;24.40;54.10
25871;DHT22;13689;48.590;7.752;2023-05-07T14:18:33;24.50;54.10
25871;DHT22;13689;48.590;7.752;2023-05-07T14:24:03;24.30;54.30
25871;DHT22;13689;48.590;7.752;2023-05-07T14:26:52;24.10;54.50
25871;DHT22;13689;48.590;7.752;2023-05-07T14:29:46;24.00;54.80
25871;DHT22;13689;48.590;7.752;2023-05-07T14:32:18;23.90;54.90
25871;DHT22;13689;48.590;7.752;2023-05-07T14:34:55;23.90;55.00
25871;DHT22;13689;48.590;7.752;2023-05-07T14:40:23;24.00;54.90
25871;DHT22;13689;48.590;7.752;2023-05-07T14:42:51;24.10;54.70
25871;DHT22;13689;48.590;7.752;2023-05-07T14:45:43;24.10;54.50
25871;DHT22;13689;48.590;7.752;2023-05-07T14:48:19;24.10;54.40
25871;DHT22;13689;48.590;7.752;2023-05-07T14:50:46;24.10;54.30
25871;DHT22;13689;48.590;7.752;2023-05-07T14:53:17;24.10;54.30
25871;DHT22;13689;48.590;7.752;2023-05-07T14:55:46;24.00;54.20
25871;DHT22;13689;48.590;7.752;2023-05-07T14:58:35;24.00;54.20
25871;DHT22;13689;48.590;7.752;2023-05-07T15:01:01;24.00;54.20
25871;DHT22;13689;48.590;7.752;2023-05-07T15:03:29;24.00;54.20
25871;DHT22;13689;48.590;7.752;2023-05-07T15:06:00;24.00;54.20
25871;DHT22;13689;48.590;7.752;2023-05-07T15:08:34;24.00;54.20
25871;DHT22;13689;48.590;7.752;2023-05-07T15:11:26;24.00;54.20
25871;DHT22;13689;48.590;7.752;2023-05-07T15:14:15;24.00;54.10
25871;DHT22;13689;48.590;7.752;2023-05-07T15:16:40;24.10;54.10
25871;DHT22;13689;48.590;7.752;2023-05-07T15:19:14;24.10;54.00
25871;DHT22;13689;48.590;7.752;2023-05-07T15:21:47;24.20;53.90
25871;DHT22;13689;48.590;7.752;2023-05-07T15:24:13;24.20;54.00
25871;DHT22;13689;48.590;7.752;2023-05-07T15:26:40;24.30;54.20
25871;DHT22;13689;48.590;7.752;2023-05-07T15:29:06;24.30;54.20
25871;DHT22;13689;48.590;7.752;2023-05-07T15:31:35;24.30;54.30
25871;DHT22;13689;48.590;7.752;2023-05-07T15:34:02;24.30;54.20
25871;DHT22;13689;48.590;7.752;2023-05-07T15:36:28;24.40;54.20
25871;DHT22;13689;48.590;7.752;2023-05-07T15:38:53;24.40;54.10
25871;DHT22;13689;48.590;7.752;2023-05-07T15:41:19;24.40;54.20
25871;DHT22;13689;48.590;7.752;2023-05-07T15:43:46;24.40;54.30